createdAt,value
2018-09-02T00:02:09.758Z,99238.00
2018-09-02T00:04:38.136Z,99248.00
2018-09-02T00:07:06.519Z,99231.00
2018-09-02T00:09:34.930Z,99241.00
2018-09-02T00:12:03.324Z,99240.00
2018-09-02T00:14:31.723Z,99240.00
2018-09-02T00:17:00.109Z,99236.00
2018-09-02T00:19:28.500Z,99240.00
2018-09-02T00:21:56.895Z,99232.00
2018-09-02T00:24:25.299Z,99246.00
2018-09-02T00:26:53.698Z,99226.00
2018-09-02T00:29:22.116Z,99241.00
2018-09-02T00:31:50.593Z,99227.00
2018-09-02T00:34:18.999Z,99225.00
2018-09-02T00:36:47.396Z,99223.00
2018-09-02T00:39:15.779Z,99226.00
2018-09-02T00:41:44.163Z,99216.00
2018-09-02T00:44:12.547Z,99213.00
2018-09-02T00:46:40.973Z,99220.00
2018-09-02T00:49:09.349Z,99212.00
2018-09-02T00:51:37.747Z,99213.00
2018-09-02T00:54:06.411Z,99209.00
2018-09-02T00:56:34.836Z,99205.00
2018-09-02T00:59:03.212Z,99210.00
2018-09-02T01:01:31.595Z,99209.00
2018-09-02T01:03:59.962Z,99207.00
2018-09-02T01:06:28.348Z,99193.00
2018-09-02T01:08:56.713Z,99190.00
2018-09-02T01:11:25.100Z,99189.00
2018-09-02T01:13:53.471Z,99195.00
2018-09-02T01:16:21.871Z,99195.00
2018-09-02T01:18:50.271Z,99198.00
2018-09-02T01:21:18.652Z,99210.00
2018-09-02T01:23:47.028Z,99198.00
2018-09-02T01:26:15.414Z,99199.00
2018-09-02T01:28:43.800Z,99199.00
2018-09-02T01:31:12.175Z,99203.00
2018-09-02T01:33:40.564Z,99198.00
2018-09-02T01:36:08.972Z,99194.00
2018-09-02T01:38:37.358Z,99192.00
2018-09-02T01:41:06.020Z,99188.00
2018-09-02T01:43:34.392Z,99195.00
2018-09-02T01:46:02.827Z,99192.00
2018-09-02T01:48:31.220Z,99185.00
2018-09-02T01:50:59.665Z,99180.00
2018-09-02T01:53:28.096Z,99183.00
2018-09-02T01:55:56.479Z,99177.00
2018-09-02T01:58:24.866Z,99179.00
2018-09-02T02:00:53.227Z,99178.00
2018-09-02T02:03:21.615Z,99164.00
2018-09-02T02:05:49.991Z,99169.00
2018-09-02T02:08:18.399Z,99161.00
2018-09-02T02:10:46.780Z,99170.00
2018-09-02T02:13:15.154Z,99161.00
2018-09-02T02:15:43.563Z,99160.00
2018-09-02T02:18:11.932Z,99163.00
2018-09-02T02:20:40.303Z,99155.00
2018-09-02T02:23:08.685Z,99153.00
2018-09-02T02:25:37.080Z,99152.00
2018-09-02T02:28:05.471Z,99150.00
2018-09-02T02:30:33.845Z,99149.00
2018-09-02T02:33:02.246Z,99156.00
2018-09-02T02:35:30.641Z,99163.00
2018-09-02T02:37:59.015Z,99151.00
2018-09-02T02:40:27.418Z,99158.00
2018-09-02T02:42:55.813Z,99147.00
2018-09-02T02:45:24.195Z,99156.00
2018-09-02T02:47:52.666Z,99147.00
2018-09-02T02:50:21.063Z,99155.00
2018-09-02T02:52:54.798Z,99157.00
2018-09-02T02:55:23.220Z,99149.00
2018-09-02T02:57:51.626Z,99152.00
2018-09-02T03:00:19.999Z,99147.00
2018-09-02T03:02:48.476Z,99144.00
2018-09-02T03:05:16.896Z,99136.00
2018-09-02T03:07:45.295Z,99136.00
2018-09-02T03:10:13.696Z,99142.00
2018-09-02T03:12:42.195Z,99128.00
2018-09-02T03:15:10.626Z,99134.00
2018-09-02T03:17:39.020Z,99137.00
2018-09-02T03:20:07.535Z,99142.00
2018-09-02T03:22:35.963Z,99135.00
2018-09-02T03:25:04.469Z,99145.00
2018-09-02T03:27:33.034Z,99148.00
2018-09-02T03:30:01.452Z,99140.00
2018-09-02T03:32:29.864Z,99147.00
2018-09-02T03:34:58.294Z,99142.00
2018-09-02T03:37:26.796Z,99139.00
2018-09-02T03:39:55.187Z,99141.00
2018-09-02T03:42:23.604Z,99142.00
2018-09-02T03:44:52.011Z,99143.00
2018-09-02T03:47:20.416Z,99140.00
2018-09-02T03:49:48.835Z,99134.00
2018-09-02T03:52:17.228Z,99137.00
2018-09-02T03:54:46.176Z,99123.00
2018-09-02T03:57:14.580Z,99125.00
2018-09-02T03:59:42.964Z,99130.00
2018-09-02T04:02:11.348Z,99138.00
2018-09-02T04:04:39.812Z,99133.00
2018-09-02T04:07:08.494Z,99128.00
2018-09-02T04:09:36.879Z,99129.00
2018-09-02T04:12:05.444Z,99147.00
2018-09-02T04:14:33.859Z,99130.00
2018-09-02T04:17:02.261Z,99132.00
2018-09-02T04:19:30.665Z,99129.00
2018-09-02T04:21:59.060Z,99135.00
2018-09-02T04:24:27.509Z,99135.00
2018-09-02T04:26:55.922Z,99139.00
2018-09-02T04:29:24.372Z,99131.00
2018-09-02T04:31:52.807Z,99127.00
2018-09-02T04:34:21.228Z,99118.00
2018-09-02T04:36:49.653Z,99121.00
2018-09-02T04:39:18.236Z,99126.00
2018-09-02T04:41:46.711Z,99123.00
2018-09-02T04:44:15.284Z,99119.00
2018-09-02T04:46:43.692Z,99114.00
2018-09-02T04:49:12.110Z,99113.00
2018-09-02T04:51:40.513Z,99109.00
2018-09-02T04:54:09.075Z,99112.00
2018-09-02T04:56:37.445Z,99116.00
2018-09-02T04:59:05.900Z,99112.00
2018-09-02T05:01:34.419Z,99112.00
2018-09-02T05:04:02.866Z,99116.00
2018-09-02T05:06:31.237Z,99122.00
2018-09-02T05:08:59.675Z,99114.00
2018-09-02T05:11:28.043Z,99127.00
2018-09-02T05:13:56.605Z,99116.00
2018-09-02T05:16:26.620Z,99120.00
2018-09-02T05:18:55.122Z,99116.00
2018-09-02T05:21:23.493Z,99121.00
2018-09-02T05:23:51.876Z,99119.00
2018-09-02T05:26:20.241Z,99122.00
2018-09-02T05:28:48.626Z,99127.00
2018-09-02T05:31:17.173Z,99120.00
2018-09-02T05:33:45.539Z,99118.00
2018-09-02T05:36:13.944Z,99123.00
2018-09-02T05:38:42.347Z,99132.00
2018-09-02T05:41:11.816Z,99123.00
2018-09-02T05:43:40.240Z,99115.00
2018-09-02T05:46:08.611Z,99111.00
2018-09-02T05:48:37.029Z,99128.00
2018-09-02T05:51:05.783Z,99127.00
2018-09-02T05:53:34.207Z,99127.00
2018-09-02T05:56:02.602Z,99120.00
2018-09-02T05:58:31.344Z,99114.00
2018-09-02T06:00:59.736Z,99103.00
2018-09-02T06:03:28.140Z,99114.00
2018-09-02T06:05:56.542Z,99114.00
2018-09-02T06:08:24.924Z,99119.00
2018-09-02T06:10:53.313Z,99112.00
2018-09-02T06:13:21.880Z,99127.00
2018-09-02T06:15:51.559Z,99113.00
2018-09-02T06:18:20.048Z,99121.00
2018-09-02T06:20:49.692Z,99118.00
2018-09-02T06:23:18.547Z,99114.00
2018-09-02T06:25:47.209Z,99121.00
2018-09-02T06:28:15.824Z,99119.00
2018-09-02T06:30:44.162Z,99122.00
2018-09-02T06:33:12.758Z,99121.00
2018-09-02T06:35:41.236Z,99118.00
2018-09-02T06:38:11.227Z,99118.00
2018-09-02T06:40:39.732Z,99125.00
2018-09-02T06:43:08.256Z,99123.00
2018-09-02T06:45:36.818Z,99120.00
2018-09-02T06:48:05.438Z,99125.00
2018-09-02T06:50:34.175Z,99122.00
2018-09-02T06:53:02.703Z,99116.00
2018-09-02T06:55:31.176Z,99121.00
2018-09-02T06:57:59.603Z,99119.00
2018-09-02T07:00:28.096Z,99118.00
2018-09-02T07:02:56.623Z,99123.00
2018-09-02T07:05:25.203Z,99126.00
2018-09-02T07:07:53.562Z,99128.00
2018-09-02T07:10:22.401Z,99119.00
2018-09-02T07:12:50.792Z,99121.00
2018-09-02T07:15:19.377Z,99117.00
2018-09-02T07:17:47.780Z,99124.00
2018-09-02T07:20:17.131Z,99127.00
2018-09-02T07:22:45.524Z,99131.00
2018-09-02T07:25:14.112Z,99129.00
2018-09-02T07:27:42.509Z,99125.00
2018-09-02T07:30:11.376Z,99133.00
2018-09-02T07:32:40.036Z,99129.00
2018-09-02T07:35:08.411Z,99125.00
2018-09-02T07:37:37.142Z,99127.00
2018-09-02T07:40:05.549Z,99121.00
2018-09-02T07:42:34.251Z,99128.00
2018-09-02T07:45:03.336Z,99127.00
2018-09-02T07:47:32.187Z,99146.00
2018-09-02T07:50:00.645Z,99131.00
2018-09-02T07:52:29.070Z,99126.00
2018-09-02T07:54:57.474Z,99130.00
2018-09-02T07:57:26.244Z,99134.00
2018-09-02T07:59:54.692Z,99135.00
2018-09-02T08:02:23.204Z,99142.00
2018-09-02T08:04:52.745Z,99140.00
2018-09-02T08:07:21.128Z,99137.00
2018-09-02T08:09:50.218Z,99138.00
2018-09-02T08:12:18.729Z,99141.00
2018-09-02T08:14:47.137Z,99135.00
2018-09-02T08:17:15.948Z,99142.00
2018-09-02T08:19:44.541Z,99131.00
2018-09-02T08:22:13.000Z,99145.00
2018-09-02T08:24:41.408Z,99143.00
2018-09-02T08:27:10.026Z,99138.00
2018-09-02T08:29:38.473Z,99135.00
2018-09-02T08:32:06.848Z,99140.00
2018-09-02T08:34:35.249Z,99140.00
2018-09-02T08:37:04.054Z,99144.00
2018-09-02T08:39:32.433Z,99144.00
2018-09-02T08:42:00.829Z,99144.00
2018-09-02T08:44:29.217Z,99137.00
2018-09-02T08:46:57.799Z,99146.00
2018-09-02T08:49:26.299Z,99139.00
2018-09-02T08:51:55.158Z,99133.00
2018-09-02T08:54:23.691Z,99136.00
2018-09-02T08:56:53.483Z,99134.00
2018-09-02T08:59:22.039Z,99130.00
2018-09-02T09:01:50.667Z,99125.00
2018-09-02T09:04:19.025Z,99137.00
2018-09-02T09:06:48.090Z,99129.00
2018-09-02T09:09:16.745Z,99142.00
2018-09-02T09:11:44.997Z,99132.00
2018-09-02T09:14:13.613Z,99146.00
2018-09-02T09:16:41.952Z,99133.00
2018-09-02T09:19:10.268Z,99131.00
2018-09-02T09:21:38.825Z,99138.00
2018-09-02T09:24:07.573Z,99135.00
2018-09-02T09:26:35.979Z,99136.00
2018-09-02T09:29:04.443Z,99133.00
2018-09-02T09:31:32.851Z,99139.00
2018-09-02T09:34:01.313Z,99127.00
2018-09-02T09:36:29.828Z,99133.00
2018-09-02T09:38:58.240Z,99136.00
2018-09-02T09:41:26.640Z,99135.00
2018-09-02T09:43:55.612Z,99134.00
2018-09-02T09:46:24.184Z,99132.00
2018-09-02T09:48:53.240Z,99124.00
2018-09-02T09:51:23.059Z,99127.00
2018-09-02T09:53:52.702Z,99133.00
2018-09-02T09:56:21.339Z,99131.00
2018-09-02T09:58:50.050Z,99124.00
2018-09-02T10:01:18.790Z,99119.00
2018-09-02T10:03:47.596Z,99130.00
2018-09-02T10:06:16.208Z,99123.00
2018-09-02T10:08:45.796Z,99100.00
2018-09-02T10:11:14.226Z,99102.00
2018-09-02T10:13:42.997Z,99100.00
2018-09-02T10:16:11.656Z,99105.00
2018-09-02T10:18:40.171Z,99100.00
2018-09-02T10:21:08.745Z,99097.00
2018-09-02T10:23:37.135Z,99092.00
2018-09-02T10:26:05.733Z,99093.00
2018-09-02T10:28:34.183Z,99106.00
2018-09-02T10:31:02.630Z,99097.00
2018-09-02T10:33:31.188Z,99105.00
2018-09-02T10:36:00.841Z,99089.00
2018-09-02T10:38:29.471Z,99094.00
2018-09-02T10:40:58.454Z,99094.00
2018-09-02T10:43:27.032Z,99096.00
2018-09-02T10:45:55.640Z,99113.00
2018-09-02T10:48:24.376Z,99114.00
2018-09-02T10:50:52.916Z,99112.00
2018-09-02T10:53:22.457Z,99104.00
2018-09-02T10:55:51.125Z,99102.00
2018-09-02T10:58:19.519Z,99096.00
2018-09-02T11:00:48.068Z,99088.00
2018-09-02T11:03:16.621Z,99090.00
2018-09-02T11:05:44.992Z,99079.00
2018-09-02T11:08:13.628Z,99091.00
2018-09-02T11:10:42.131Z,99089.00
2018-09-02T11:13:10.654Z,99094.00
2018-09-02T11:15:39.735Z,99082.00
2018-09-02T11:18:08.447Z,99075.00
2018-09-02T11:20:36.886Z,99073.00
2018-09-02T11:23:05.243Z,99071.00
2018-09-02T11:25:33.775Z,99068.00
2018-09-02T11:28:02.632Z,99075.00
2018-09-02T11:30:31.145Z,99066.00
2018-09-02T11:32:59.556Z,99070.00
2018-09-02T11:35:27.968Z,99067.00
2018-09-02T11:37:56.390Z,99073.00
2018-09-02T11:40:24.760Z,99062.00
2018-09-02T11:42:53.116Z,99062.00
2018-09-02T11:45:21.480Z,99057.00
2018-09-02T11:47:50.332Z,99055.00
2018-09-02T11:50:18.695Z,99057.00
2018-09-02T11:52:47.392Z,99052.00
2018-09-02T11:55:16.249Z,99057.00
2018-09-02T11:57:44.817Z,99057.00
2018-09-02T12:00:13.367Z,99059.00
2018-09-02T12:02:41.780Z,99054.00
2018-09-02T12:05:10.328Z,99055.00
2018-09-02T12:07:38.784Z,99059.00
2018-09-02T12:10:08.312Z,99048.00
2018-09-02T12:12:36.775Z,99054.00
2018-09-02T12:15:05.282Z,99051.00
2018-09-02T12:17:34.560Z,99047.00
2018-09-02T12:20:03.040Z,99058.00
2018-09-02T12:22:31.473Z,99052.00
2018-09-02T12:25:00.561Z,99051.00
2018-09-02T12:27:29.627Z,99056.00
2018-09-02T12:29:58.627Z,99048.00
2018-09-02T12:32:27.030Z,99043.00
2018-09-02T12:34:55.443Z,99057.00
2018-09-02T12:37:23.844Z,99043.00
2018-09-02T12:39:52.283Z,99049.00
2018-09-02T12:42:20.762Z,99038.00
2018-09-02T12:44:49.213Z,99044.00
2018-09-02T12:47:17.767Z,99047.00
2018-09-02T12:49:46.596Z,99047.00
2018-09-02T12:52:15.128Z,99044.00
2018-09-02T12:54:43.589Z,99035.00
2018-09-02T12:57:13.026Z,99031.00
2018-09-02T12:59:41.632Z,99043.00
2018-09-02T13:02:10.129Z,99035.00
2018-09-02T13:04:39.641Z,99038.00
2018-09-02T13:07:08.048Z,99036.00
2018-09-02T13:09:36.640Z,99028.00
2018-09-02T13:12:05.149Z,99031.00
2018-09-02T13:14:33.618Z,99027.00
2018-09-02T13:17:02.145Z,99016.00
2018-09-02T13:19:30.833Z,99025.00
2018-09-02T13:21:59.226Z,99025.00
2018-09-02T13:24:27.666Z,99009.00
2018-09-02T13:26:56.174Z,99008.00
2018-09-02T13:29:25.039Z,99013.00
2018-09-02T13:31:53.586Z,99008.00
2018-09-02T13:34:22.014Z,99010.00
2018-09-02T13:36:50.432Z,99006.00
2018-09-02T13:39:18.821Z,98997.00
2018-09-02T13:41:47.870Z,98994.00
2018-09-02T13:44:16.644Z,99002.00
2018-09-02T13:46:45.139Z,98994.00
2018-09-02T13:49:13.665Z,98992.00
2018-09-02T13:51:42.132Z,98991.00
2018-09-02T13:54:10.603Z,98988.00
2018-09-02T13:56:39.155Z,98994.00
2018-09-02T13:59:07.537Z,98995.00
2018-09-02T14:01:35.980Z,99000.00
2018-09-02T14:04:04.354Z,98999.00
2018-09-02T14:06:32.761Z,98997.00
2018-09-02T14:09:01.302Z,98998.00
2018-09-02T14:11:34.455Z,98988.00
2018-09-02T14:14:03.108Z,98991.00
2018-09-02T14:16:31.651Z,98987.00
2018-09-02T14:19:00.102Z,98979.00
2018-09-02T14:21:28.652Z,98981.00
2018-09-02T14:23:57.050Z,98977.00
2018-09-02T14:26:25.465Z,98978.00
2018-09-02T14:28:53.832Z,98968.00
2018-09-02T14:31:22.189Z,98964.00
2018-09-02T14:33:50.591Z,98976.00
2018-09-02T14:36:21.492Z,98969.00
2018-09-02T14:38:49.979Z,98972.00
2018-09-02T14:41:18.529Z,98958.00
2018-09-02T14:43:46.957Z,98969.00
2018-09-02T14:46:15.313Z,98970.00
2018-09-02T14:48:43.882Z,98966.00
2018-09-02T14:51:12.311Z,98968.00
2018-09-02T14:53:40.887Z,98968.00
2018-09-02T14:56:10.465Z,98970.00
2018-09-02T14:58:38.863Z,98968.00
2018-09-02T15:01:07.280Z,98979.00
2018-09-02T15:03:35.736Z,98977.00
2018-09-02T15:06:04.314Z,98980.00
2018-09-02T15:08:32.835Z,98984.00
2018-09-02T15:11:01.694Z,98981.00
2018-09-02T15:13:30.151Z,98972.00
2018-09-02T15:15:58.729Z,98972.00
2018-09-02T15:18:27.154Z,98974.00
2018-09-02T15:20:55.527Z,98980.00
2018-09-02T15:23:24.084Z,98976.00
2018-09-02T15:25:52.492Z,98971.00
2018-09-02T15:28:20.927Z,98956.00
2018-09-02T15:30:49.459Z,98980.00
2018-09-02T15:33:17.960Z,98978.00
2018-09-02T15:35:46.989Z,98970.00
2018-09-02T15:38:15.851Z,98966.00
2018-09-02T15:40:44.453Z,98963.00
2018-09-02T15:43:14.043Z,98963.00
2018-09-02T15:45:42.530Z,98971.00
2018-09-02T15:48:10.902Z,98960.00
2018-09-02T15:50:39.298Z,98952.00
2018-09-02T15:53:07.759Z,98959.00
2018-09-02T15:55:36.238Z,98962.00
2018-09-02T15:58:04.685Z,98960.00
2018-09-02T16:00:33.237Z,98965.00
2018-09-02T16:03:01.715Z,98966.00
2018-09-02T16:05:30.227Z,98960.00
2018-09-02T16:07:58.599Z,98959.00
2018-09-02T16:10:27.193Z,98957.00
2018-09-02T16:12:56.459Z,98945.00
2018-09-02T16:15:25.304Z,98950.00
2018-09-02T16:17:53.755Z,98960.00
2018-09-02T16:20:22.292Z,98962.00
2018-09-02T16:22:50.780Z,98946.00
2018-09-02T16:25:19.408Z,98928.00
2018-09-02T16:27:47.885Z,98931.00
2018-09-02T16:30:16.349Z,98942.00
2018-09-02T16:32:44.748Z,98960.00
2018-09-02T16:35:13.132Z,98922.00
2018-09-02T16:37:41.571Z,98937.00
2018-09-02T16:40:09.940Z,98941.00
2018-09-02T16:42:38.383Z,98939.00
2018-09-02T16:45:06.973Z,98943.00
2018-09-02T16:47:35.455Z,98931.00
2018-09-02T16:50:03.832Z,98939.00
2018-09-02T16:52:32.326Z,98937.00
2018-09-02T16:55:00.807Z,98925.00
2018-09-02T16:57:29.251Z,98940.00
2018-09-02T16:59:57.654Z,98936.00
2018-09-02T17:02:26.079Z,98927.00
2018-09-02T17:04:59.201Z,98928.00
2018-09-02T17:07:27.993Z,98925.00
2018-09-02T17:09:56.373Z,98920.00
2018-09-02T17:12:24.973Z,98926.00
2018-09-02T17:14:53.236Z,98926.00
2018-09-02T17:17:21.686Z,98920.00
2018-09-02T17:19:53.046Z,98917.00
2018-09-02T17:22:21.427Z,98920.00
2018-09-02T17:24:49.812Z,98921.00
2018-09-02T17:27:18.264Z,98919.00
2018-09-02T17:29:46.646Z,98922.00
2018-09-02T17:32:17.371Z,98911.00
2018-09-02T17:34:46.025Z,98917.00
2018-09-02T17:37:14.430Z,98918.00
2018-09-02T17:39:42.885Z,98906.00
2018-09-02T17:42:11.304Z,98908.00
2018-09-02T17:44:39.654Z,98915.00
2018-09-02T17:47:08.020Z,98903.00
2018-09-02T17:49:36.527Z,98904.00
2018-09-02T17:52:04.890Z,98913.00
2018-09-02T17:54:33.322Z,98914.00
2018-09-02T17:57:01.891Z,98910.00
2018-09-02T17:59:30.358Z,98913.00
2018-09-02T18:01:58.748Z,98918.00
2018-09-02T18:04:27.107Z,98928.00
2018-09-02T18:06:55.581Z,98922.00
2018-09-02T18:09:23.943Z,98931.00
2018-09-02T18:11:52.288Z,98930.00
2018-09-02T18:14:20.678Z,98937.00
2018-09-02T18:16:49.037Z,98924.00
2018-09-02T18:19:17.401Z,98932.00
2018-09-02T18:21:45.932Z,98935.00
2018-09-02T18:24:14.390Z,98938.00
2018-09-02T18:34:15.477Z,98935.00
2018-09-02T18:36:43.948Z,98940.00
2018-09-02T18:39:12.649Z,98931.00
2018-09-02T18:41:41.236Z,98941.00
2018-09-02T18:44:09.666Z,98944.00
2018-09-02T18:46:38.126Z,98939.00
2018-09-02T18:49:07.168Z,98943.00
2018-09-02T18:51:35.969Z,98935.00
2018-09-02T18:54:04.433Z,98948.00
2018-09-02T18:56:32.944Z,98956.00
2018-09-02T18:59:01.498Z,98955.00
2018-09-02T19:01:30.189Z,98949.00
2018-09-02T19:03:58.599Z,98951.00
2018-09-02T19:06:27.027Z,98956.00
2018-09-02T19:08:55.463Z,98952.00
2018-09-02T19:11:23.891Z,98951.00
2018-09-02T19:13:52.357Z,98951.00
2018-09-02T19:16:20.803Z,98953.00
2018-09-02T19:18:49.260Z,98953.00
2018-09-02T19:21:17.760Z,98954.00
2018-09-02T19:23:46.309Z,98961.00
2018-09-02T19:26:14.831Z,98950.00
2018-09-02T19:28:43.265Z,98958.00
2018-09-02T19:31:11.715Z,98948.00
2018-09-02T19:33:40.144Z,98943.00
2018-09-02T19:36:08.628Z,98941.00
2018-09-02T19:38:37.107Z,98940.00
2018-09-02T19:41:05.545Z,98946.00
2018-09-02T19:43:33.994Z,98951.00
2018-09-02T19:46:02.416Z,98936.00
2018-09-02T19:48:30.875Z,98927.00
2018-09-02T19:50:59.370Z,98933.00
2018-09-02T19:53:27.823Z,98935.00
2018-09-02T19:55:56.431Z,98927.00
2018-09-02T19:58:25.297Z,98935.00
2018-09-02T20:00:53.880Z,98921.00
2018-09-02T20:11:05.757Z,98908.00
2018-09-02T20:13:34.241Z,98908.00
2018-09-02T20:16:02.698Z,98901.00
2018-09-02T20:18:31.125Z,98900.00
2018-09-02T20:21:00.256Z,98909.00
2018-09-02T20:23:28.933Z,98899.00
2018-09-02T20:25:57.430Z,98900.00
2018-09-02T20:28:26.185Z,98904.00
2018-09-02T20:30:54.743Z,98896.00
2018-09-02T20:33:23.263Z,98901.00
2018-09-02T20:35:51.875Z,98900.00
2018-09-02T20:38:21.277Z,98903.00
2018-09-02T20:40:49.866Z,98897.00
2018-09-02T20:43:18.299Z,98899.00
2018-09-02T20:45:46.739Z,98902.00
2018-09-02T20:48:15.211Z,98903.00
2018-09-02T20:50:43.709Z,98904.00
2018-09-02T20:53:12.165Z,98895.00
2018-09-02T20:55:40.726Z,98896.00
2018-09-02T20:58:09.699Z,98895.00
2018-09-02T21:01:33.311Z,98903.00
2018-09-02T21:04:01.750Z,98895.00
2018-09-02T21:06:30.159Z,98897.00
2018-09-02T21:08:58.852Z,98893.00
2018-09-02T21:11:27.298Z,98899.00
2018-09-02T21:13:55.710Z,98895.00
2018-09-02T21:16:24.117Z,98904.00
2018-09-02T21:18:52.533Z,98907.00
2018-09-02T21:21:21.151Z,98899.00
2018-09-02T21:23:49.578Z,98910.00
2018-09-02T21:26:17.991Z,98902.00
2018-09-02T21:28:46.484Z,98897.00
2018-09-02T21:31:14.893Z,98894.00
2018-09-02T21:33:43.313Z,98893.00
2018-09-02T21:36:11.716Z,98895.00
2018-09-02T21:38:40.116Z,98875.00
2018-09-02T21:41:08.523Z,98879.00
2018-09-02T21:43:36.949Z,98875.00
2018-09-02T21:46:05.345Z,98862.00
2018-09-02T21:48:33.757Z,98865.00
2018-09-02T21:51:02.181Z,98856.00
2018-09-02T21:53:30.705Z,98855.00
2018-09-02T21:55:59.278Z,98856.00
2018-09-02T21:58:27.865Z,98855.00
2018-09-02T22:00:56.277Z,98855.00
2018-09-02T22:03:24.691Z,98853.00
2018-09-02T22:05:53.131Z,98864.00
2018-09-02T22:08:21.541Z,98865.00
2018-09-02T22:10:49.941Z,98862.00
2018-09-02T22:13:18.415Z,98848.00
2018-09-02T22:15:46.828Z,98847.00
2018-09-02T22:18:15.242Z,98845.00
2018-09-02T22:20:43.694Z,98845.00
2018-09-02T22:23:12.105Z,98838.00
2018-09-02T22:25:40.588Z,98842.00
2018-09-02T22:28:08.937Z,98840.00
2018-09-02T22:30:37.340Z,98832.00
2018-09-02T22:33:05.925Z,98827.00
2018-09-02T22:35:34.373Z,98826.00
2018-09-02T22:38:03.004Z,98821.00
2018-09-02T22:40:31.429Z,98818.00
2018-09-02T22:42:59.841Z,98817.00
2018-09-02T22:45:28.326Z,98820.00
2018-09-02T22:47:57.963Z,98819.00
2018-09-02T22:50:26.401Z,98803.00
2018-09-02T22:52:54.804Z,98809.00
2018-09-02T22:55:23.214Z,98804.00
2018-09-02T22:57:51.685Z,98780.00
2018-09-02T23:00:20.073Z,98778.00
2018-09-02T23:02:48.489Z,98774.00
2018-09-02T23:05:16.893Z,98773.00
2018-09-02T23:07:45.304Z,98776.00
2018-09-02T23:10:13.849Z,98764.00
2018-09-02T23:12:42.281Z,98749.00
2018-09-02T23:15:10.717Z,98745.00
2018-09-02T23:17:39.133Z,98745.00
2018-09-02T23:20:07.605Z,98751.00
2018-09-02T23:22:35.994Z,98751.00
2018-09-02T23:25:04.455Z,98758.00
2018-09-02T23:27:33.103Z,98744.00
2018-09-02T23:30:01.572Z,98744.00
2018-09-02T23:32:29.953Z,98739.00
2018-09-02T23:34:58.359Z,98740.00
2018-09-02T23:37:26.764Z,98738.00
2018-09-02T23:39:55.354Z,98734.00
2018-09-02T23:42:23.762Z,98736.00
2018-09-02T23:44:52.168Z,98743.00
2018-09-02T23:47:20.583Z,98759.00
2018-09-02T23:49:48.988Z,98777.00
2018-09-02T23:52:17.405Z,98763.00
2018-09-02T23:54:45.805Z,98744.00
2018-09-02T23:57:14.353Z,98757.00
2018-09-02T23:59:42.805Z,98755.00
